Wildie, Kentucky
Current Conditions -  °F | °C
As of 6:55 AM on Monday 22 Dec 2014 (Local Time) from KI39 Reporting Station
Overcast Overcast  
Wind Chill: 36°   Ceiling: 4400
Heat Index: 36°   Visibility: 10mi
Dew Point: 28°   Wind: 3mph
Humidity: 75%   Direction: 100°E
Pressure: 30.01"   Gusts: NA
Location:  37.42°N, 84.3°W
Report Text: KI39 221155Z AUTO 10003KT 10SM SCT026 OVC044 02/M02 A3001 RMK AO2
Loading
Personal Weather Stations






























Interactive Weather Map New forecast layout! Learn more

10-Day Weather Forecast

Advertisements
Track Severe Weather on mobile